Terminal Aerodrome Forecast
Issued by NWS

Home | Current Version | Previous Version | Text Only | Print | Product List | Glossary On
Versions: 1 2 3 4 5 6 7 8 9 10 11 12 13 14 15 16 17 18 19 20 21 22 23 24 25 26 27
000
FTUS44 KFWD 261139
TAFFTW
TAF
KFTW 261139Z 2612/2712 11005KT P6SM SCT025 BKN050 BKN250
     FM261600 09009KT P6SM VCSH SCT025 BKN050
     FM261800 09009KT P6SM VCTS BKN040CB BKN150 BKN250
     FM262200 12007KT P6SM BKN050 BKN150=

USA.gov is the U.S. government's official web portal to all federal, state and local government web resources and services.